Accueil
METAR-TAF:

METAR-TAF

Aéroports :

Niederstetten, Allemagne

Base aérienne

latitude: 49-24N, longitude: 009-58E, altitude: 468 m

Observation

Le bulletin a été fait il y a 27 minutes, à 03:20 UTC
Vent 4 kt de ouest/sud-ouest
Température 16°C
Humidité 51%
Pression 1015 hPa
Visibilité 10 km ou plus
Quelques nuages à une hauteur de 12000 ft
Nuages épars à une hauteur de 27000 ft

METAR: ETHN 230320Z 24004KT 9999 FEW120 SCT270 16/06 Q1015 BLU+

Heure: 05:47 (03:47 UTC)


TAF: absent

Observations et prévisions météorologiques de plus de 4000 aéroports (messages METAR et TAF).

Les stations disponibles sont représentées par des disques jaunes et rouges sur la carte.

Passer la souris dessus pour voir le nom de la station.

Cliquer dessus pour voir les observations et prévisions météorologiques.

Pour changer de carte: cliquez sur les boutons verts avec une croix noire pour zoomer, sur le bouton vert avec un tiret pour effectuer un zoom arrière, ou sur les flèches vertes pour les cartes adjacentes.


METAR-TAF: